Time;durP1;ratioP1;P1;durP2;ratioP2;P2;SDS_P1;SDS_P2;PMS_P1;PMS_P2;Temp;Humidity;BMP_temperature;BMP_pressure;BME280_temperature;BME280_humidity;BME280_pressure;Samples;Min_cycle;Max_cycle;Signal;HPM_P1;HPM_P2
2023/02/03 00:02:08;;;;;;;1.67;1.57;;;2.10;99.90;1.80;101183.00;;;;4778766;29;122176;-69
2023/02/03 00:04:34;;;;;;;2.77;1.53;;;2.10;99.90;1.90;101165.00;;;;4794900;29;109479;-71
2023/02/03 00:07:00;;;;;;;3.77;2.03;;;2.20;99.90;1.90;101172.00;;;;4776833;29;109516;-71
2023/02/03 00:09:25;;;;;;;2.80;1.83;;;2.20;99.90;2.00;101178.00;;;;4780118;29;107133;-69
2023/02/03 00:11:51;;;;;;;4.00;1.83;;;2.20;99.90;2.00;101166.00;;;;4778747;29;122002;-70
2023/02/03 00:14:17;;;;;;;2.00;1.37;;;2.20;99.90;2.00;101156.00;;;;4776508;29;92946;-69
2023/02/03 00:16:42;;;;;;;3.33;2.10;;;2.30;99.90;2.10;101154.00;;;;4778483;29;93184;-69
2023/02/03 00:19:08;;;;;;;3.20;2.00;;;2.30;99.90;2.10;101157.00;;;;4780748;29;108969;-69
2023/02/03 00:21:34;;;;;;;2.73;1.83;;;2.30;99.90;2.10;101150.00;;;;4776789;29;123846;-67
2023/02/03 00:23:59;;;;;;;1.37;1.13;;;2.50;99.90;2.20;101147.00;;;;4776672;29;110724;-70
2023/02/03 00:26:27;;;;;;;1.97;1.30;;;2.90;99.90;2.20;101146.00;;;;4777382;29;109293;-68
2023/02/03 00:28:53;;;;;;;3.03;1.60;;;2.50;99.90;2.20;101142.00;;;;4781714;29;93071;-71
2023/02/03 00:31:22;;;;;;;1.90;1.60;;;2.60;99.90;2.30;101144.00;;;;4775493;29;123200;-68
2023/02/03 00:33:53;;;;;;;4.77;2.17;;;2.60;99.90;2.30;101142.00;;;;4776464;29;111669;-70
2023/02/03 00:36:19;;;;;;;4.27;2.43;;;2.80;99.90;2.30;101145.00;;;;4780564;29;92794;-68
2023/02/03 00:38:44;;;;;;;1.97;1.50;;;2.50;99.90;2.40;101140.00;;;;4776347;29;108822;-68
2023/02/03 00:41:10;;;;;;;1.33;1.23;;;2.60;99.90;2.40;101138.00;;;;4778874;29;122901;-68
2023/02/03 00:43:36;;;;;;;3.03;1.60;;;2.70;99.90;2.40;101132.00;;;;4777393;29;112384;-69
2023/02/03 00:46:01;;;;;;;3.67;1.50;;;2.60;99.90;2.40;101126.00;;;;4778926;29;111202;-67
2023/02/03 00:48:27;;;;;;;1.30;1.20;;;2.70;99.90;2.40;101112.00;;;;4780508;29;92942;-69
2023/02/03 00:50:53;;;;;;;2.00;1.60;;;2.70;99.90;2.40;101108.00;;;;4777509;29;123345;-68
2023/02/03 00:53:18;;;;;;;3.10;1.90;;;2.70;99.90;2.50;101118.00;;;;4779775;29;121190;-70
2023/02/03 00:55:44;;;;;;;2.73;1.67;;;2.80;99.90;2.50;101111.00;;;;4775461;29;110479;-68
2023/02/03 00:58:10;;;;;;;2.37;1.37;;;2.70;99.90;2.50;101102.00;;;;4775587;29;108866;-69
2023/02/03 01:00:35;;;;;;;1.43;1.20;;;2.70;99.90;2.50;101092.00;;;;4777016;29;94029;-69
2023/02/03 01:03:01;;;;;;;2.90;1.60;;;2.80;99.90;2.50;101094.00;;;;4778772;29;122571;-69
2023/02/03 01:05:27;;;;;;;2.93;1.53;;;3.60;99.90;2.60;101076.00;;;;4772539;29;109117;-69
2023/02/03 01:07:52;;;;;;;2.37;1.70;;;2.80;99.90;2.60;101069.00;;;;4779873;29;109220;-70
2023/02/03 01:10:18;;;;;;;4.00;2.33;;;2.80;99.90;2.60;101061.00;;;;4777416;29;94222;-69
2023/02/03 01:12:43;;;;;;;1.87;1.60;;;3.80;99.90;2.60;101058.00;;;;4775649;29;123315;-69
2023/02/03 01:15:09;;;;;;;1.57;1.30;;;2.80;99.90;2.60;101047.00;;;;4776732;29;110741;-69
2023/02/03 01:17:35;;;;;;;1.57;1.43;;;2.80;99.90;2.60;101036.00;;;;4777215;29;108876;-68
2023/02/03 01:20:01;;;;;;;2.10;1.80;;;2.80;99.90;2.60;101038.00;;;;4779203;29;110865;-69
2023/02/03 01:22:29;;;;;;;1.77;1.50;;;2.80;99.90;2.60;101038.00;;;;4779244;29;121931;-70
2023/02/03 01:24:55;;;;;;;2.00;1.50;;;2.90;99.90;2.60;101032.00;;;;4781177;29;94355;-70
2023/02/03 01:27:20;;;;;;;3.50;1.40;;;2.90;99.90;2.70;101025.00;;;;4779658;29;109077;-68
2023/02/03 01:29:46;;;;;;;3.30;1.30;;;2.80;99.90;2.60;101004.00;;;;4779018;29;93840;-70
2023/02/03 01:32:12;;;;;;;1.57;1.23;;;2.90;99.90;2.60;100999.00;;;;4773495;29;121933;-69
2023/02/03 01:34:37;;;;;;;2.43;1.70;;;2.90;99.90;2.60;101008.00;;;;4774639;29;109906;-68
2023/02/03 01:37:03;;;;;;;2.00;1.30;;;2.90;99.90;2.60;101005.00;;;;4774800;29;92977;-69
2023/02/03 01:39:29;;;;;;;2.23;1.80;;;2.90;99.90;2.60;101004.00;;;;4773717;29;106471;-69
2023/02/03 01:41:55;;;;;;;1.70;1.57;;;2.80;99.90;2.60;101000.00;;;;4776235;29;122414;-69
2023/02/03 01:44:44;;;;;;;4.00;1.77;;;3.00;99.90;2.60;101005.00;;;;4778041;29;93153;-69
2023/02/03 01:47:14;;;;;;;3.47;2.17;;;3.80;99.90;2.60;100994.00;;;;4781115;29;92787;-68
2023/02/03 01:49:45;;;;;;;4.03;1.97;;;2.80;99.90;2.60;100991.00;;;;4777828;29;107999;-68
2023/02/03 01:52:11;;;;;;;4.83;1.80;;;2.80;99.90;2.60;100985.00;;;;4775022;29;114835;-68
2023/02/03 01:54:43;;;;;;;2.30;1.73;;;2.90;99.90;2.50;100979.00;;;;4778523;29;93151;-68
2023/02/03 01:57:20;;;;;;;2.50;2.30;;;2.80;99.90;2.50;100977.00;;;;4779266;29;92999;-68
2023/02/03 01:59:47;;;;;;;2.27;1.90;;;2.80;99.90;2.50;100970.00;;;;4777744;29;94285;-68
2023/02/03 02:02:13;;;;;;;2.07;1.90;;;2.80;99.90;2.50;100956.00;;;;4776305;29;94635;-67
2023/02/03 02:04:59;;;;;;;2.87;2.07;;;2.70;99.90;2.50;100946.00;;;;4779395;29;109742;-68
2023/02/03 02:07:25;;;;;;;1.70;1.60;;;2.80;99.90;2.50;100944.00;;;;4790815;29;95712;-66
2023/02/03 02:09:50;;;;;;;2.70;2.17;;;2.80;99.90;2.50;100950.00;;;;4777811;29;103623;-68
2023/02/03 02:12:16;;;;;;;6.43;2.70;;;2.70;99.90;2.40;100944.00;;;;4779439;29;93034;-67
2023/02/03 02:14:43;;;;;;;2.33;2.07;;;3.50;99.90;2.40;100950.00;;;;4774717;29;111134;-67
2023/02/03 02:17:47;;;;;;;2.20;1.70;;;2.70;99.90;2.40;100957.00;;;;4775918;29;92080;-66
2023/02/03 02:20:53;;;;;;;3.47;2.17;;;2.70;99.90;2.40;100945.00;;;;4773730;29;94049;-69
2023/02/03 02:24:06;;;;;;;4.23;1.60;;;2.70;99.90;2.30;100924.00;;;;4778306;29;117036;-68
2023/02/03 02:26:58;;;;;;;3.47;2.30;;;2.70;99.90;2.30;100907.00;;;;4776609;29;93981;-67
2023/02/03 02:30:16;;;;;;;3.60;1.57;;;2.60;99.90;2.30;100895.00;;;;4776377;29;93104;-69
2023/02/03 02:33:08;;;;;;;2.53;1.47;;;2.60;99.90;2.30;100892.00;;;;4780358;29;92909;-69
2023/02/03 02:36:27;;;;;;;1.60;1.50;;;2.60;99.90;2.30;100882.00;;;;4774811;29;95054;-69
2023/02/03 02:39:12;;;;;;;3.50;1.70;;;2.60;99.90;2.20;100872.00;;;;4759212;29;93126;-69
2023/02/03 02:42:02;;;;;;;5.60;1.93;;;2.60;99.90;2.20;100870.00;;;;4756691;29;93149;-68
2023/02/03 02:44:38;;;;;;;3.33;1.47;;;2.60;99.90;2.30;100846.00;;;;4769456;29;120450;-69
2023/02/03 02:47:21;;;;;;;1.83;1.73;;;2.50;99.90;2.20;100836.00;;;;4775763;29;93074;-68
2023/02/03 02:50:02;;;;;;;5.87;1.17;;;2.60;99.90;2.30;100827.00;;;;4791962;29;104566;-68
2023/02/03 02:52:31;;;;;;;2.50;1.43;;;2.60;99.90;2.30;100800.00;;;;4778013;29;100839;-69
2023/02/03 02:55:07;;;;;;;0.83;0.83;;;2.60;99.90;2.30;100798.00;;;;4776325;29;94585;-70
2023/02/03 02:57:36;;;;;;;0.83;0.83;;;2.40;99.90;2.30;100792.00;;;;4775041;29;95175;-68
2023/02/03 03:00:04;;;;;;;1.70;1.37;;;2.60;99.90;2.30;100795.00;;;;4779153;29;110653;-70
2023/02/03 03:02:35;;;;;;;2.23;1.20;;;2.50;99.90;2.30;100788.00;;;;4773957;29;92898;-69
2023/02/03 03:05:04;;;;;;;7.70;1.43;;;2.50;99.90;2.40;100787.00;;;;4776540;29;115007;-69
2023/02/03 03:07:38;;;;;;;2.10;1.47;;;2.50;99.90;2.40;100775.00;;;;4785894;29;93153;-69
2023/02/03 03:10:10;;;;;;;1.23;1.03;;;3.70;99.90;2.40;100775.00;;;;4778359;29;104167;-69
2023/02/03 03:12:45;;;;;;;1.73;1.20;;;2.70;99.90;2.40;100768.00;;;;4779044;29;92222;-67
2023/02/03 03:15:17;;;;;;;1.37;1.20;;;2.60;99.90;2.40;100769.00;;;;4778115;29;116902;-69
2023/02/03 03:17:58;;;;;;;1.53;0.80;;;2.70;99.90;2.40;100770.00;;;;4776015;29;109347;-69
2023/02/03 03:20:26;;;;;;;3.77;0.50;;;2.70;99.90;2.40;100764.00;;;;4778534;29;94152;-67
2023/02/03 03:23:07;;;;;;;1.23;0.90;;;2.60;99.90;2.40;100759.00;;;;4777905;29;92947;-67
2023/02/03 03:25:42;;;;;;;0.53;0.40;;;3.50;99.90;2.50;100746.00;;;;4779009;29;94549;-67
2023/02/03 03:28:16;;;;;;;1.53;1.13;;;2.70;99.90;2.50;100736.00;;;;4789674;29;101420;-68
2023/02/03 03:30:42;;;;;;;0.67;0.67;;;2.80;99.90;2.50;100737.00;;;;4774852;29;93080;-69
2023/02/03 03:33:08;;;;;;;0.83;0.77;;;2.70;99.90;2.60;100726.00;;;;4774245;29;108001;-69
2023/02/03 03:35:49;;;;;;;1.77;1.30;;;2.70;99.90;2.60;100717.00;;;;4789316;29;116648;-68
2023/02/03 03:38:31;;;;;;;0.53;0.53;;;2.80;99.90;2.60;100703.00;;;;4775980;29;93187;-68
2023/02/03 03:41:17;;;;;;;2.37;1.37;;;2.80;99.90;2.60;100707.00;;;;4779394;29;94247;-70
2023/02/03 03:43:46;;;;;;;1.33;0.87;;;3.50;99.90;2.70;100712.00;;;;4787532;29;101158;-70
2023/02/03 03:46:18;;;;;;;1.40;1.27;;;2.90;99.90;2.80;100703.00;;;;4774599;29;94936;-68
2023/02/03 03:48:55;;;;;;;1.27;1.00;;;3.00;99.90;2.90;100701.00;;;;4789265;29;114871;-69
2023/02/03 03:51:48;;;;;;;3.30;1.17;;;3.10;99.90;2.90;100694.00;;;;4779178;29;93261;-68
2023/02/03 03:54:17;;;;;;;1.77;1.37;;;3.10;99.90;3.00;100678.00;;;;4764108;29;92929;-69
2023/02/03 03:56:59;;;;;;;2.83;1.67;;;3.30;99.90;3.10;100675.00;;;;4790502;29;93874;-67
2023/02/03 03:59:30;;;;;;;2.53;1.87;;;3.30;99.90;3.20;100649.00;;;;4776346;29;95690;-68
2023/02/03 04:01:58;;;;;;;1.97;1.60;;;3.30;99.90;3.20;100657.00;;;;4774813;29;105055;-69
2023/02/03 04:04:25;;;;;;;2.33;1.90;;;3.40;99.90;3.20;100655.00;;;;4778313;29;92266;-67
2023/02/03 04:06:53;;;;;;;2.53;2.07;;;3.50;99.90;3.40;100655.00;;;;4772956;29;93154;-69
2023/02/03 04:09:19;;;;;;;3.03;2.60;;;3.50;99.90;3.50;100649.00;;;;4774004;29;93163;-69
2023/02/03 04:12:00;;;;;;;2.40;1.47;;;3.60;99.90;3.60;100644.00;;;;4773742;29;109805;-70
2023/02/03 04:14:29;;;;;;;2.77;2.23;;;3.70;99.90;3.70;100640.00;;;;4780973;29;92905;-70
2023/02/03 04:16:56;;;;;;;2.50;2.27;;;4.50;99.90;3.80;100643.00;;;;4779168;29;93448;-70
2023/02/03 04:19:22;;;;;;;4.73;3.47;;;3.90;99.90;3.80;100644.00;;;;4776909;29;93198;-69
2023/02/03 04:21:47;;;;;;;3.17;2.90;;;4.00;99.90;3.90;100643.00;;;;4780954;29;92983;-71
2023/02/03 04:24:13;;;;;;;2.17;1.90;;;4.10;99.90;4.00;100624.00;;;;4776765;29;108465;-70
2023/02/03 04:26:39;;;;;;;4.37;3.03;;;4.10;99.90;4.10;100628.00;;;;4778935;29;110581;-70
2023/02/03 04:29:05;;;;;;;4.27;3.33;;;4.20;99.90;4.20;100625.00;;;;4777905;29;122563;-71
2023/02/03 04:31:31;;;;;;;6.70;3.77;;;4.30;99.90;4.20;100618.00;;;;4777556;29;93163;-70
2023/02/03 04:33:56;;;;;;;8.70;3.23;;;4.50;99.90;4.30;100631.00;;;;4777745;29;111525;-72
2023/02/03 04:36:22;;;;;;;3.57;3.10;;;4.70;99.90;4.30;100626.00;;;;4778521;29;123841;-72
2023/02/03 04:38:49;;;;;;;8.90;4.40;;;4.60;99.90;4.40;100619.00;;;;4780802;29;93188;-71
2023/02/03 04:41:15;;;;;;;4.23;3.77;;;4.50;99.90;4.50;100617.00;;;;4780407;29;97203;-72
2023/02/03 04:43:40;;;;;;;5.27;4.67;;;4.60;99.90;4.60;100624.00;;;;4775971;29;107569;-73
2023/02/03 04:46:06;;;;;;;6.57;4.93;;;4.70;99.90;4.60;100628.00;;;;4767441;29;123421;-74
2023/02/03 04:48:31;;;;;;;7.47;4.77;;;4.70;99.90;4.70;100632.00;;;;4778143;29;120387;-72
2023/02/03 04:51:06;;;;;;;10.07;4.93;;;5.50;99.90;4.70;100623.00;;;;4778890;29;109936;-72
2023/02/03 04:53:32;;;;;;;6.57;4.13;;;5.80;99.90;4.80;100627.00;;;;4781316;29;103841;-72
2023/02/03 04:55:58;;;;;;;8.07;5.37;;;5.40;99.90;4.90;100615.00;;;;4776987;29;122292;-72
2023/02/03 04:58:25;;;;;;;5.90;5.20;;;5.10;99.90;5.00;100620.00;;;;4774902;29;122273;-71
2023/02/03 05:00:52;;;;;;;7.20;5.57;;;5.10;99.90;5.10;100623.00;;;;4775901;29;94816;-73
2023/02/03 05:03:17;;;;;;;9.07;5.80;;;5.20;99.90;5.20;100604.00;;;;4777813;29;101127;-76
2023/02/03 05:05:43;;;;;;;10.37;6.33;;;5.30;99.90;5.20;100604.00;;;;4777863;29;122719;-72
2023/02/03 05:08:09;;;;;;;9.17;5.27;;;6.00;99.90;5.30;100593.00;;;;4776427;29;123431;-75
2023/02/03 05:10:34;;;;;;;9.30;5.53;;;5.40;99.90;5.40;100591.00;;;;4777720;29;108978;-73
2023/02/03 05:13:00;;;;;;;9.80;6.00;;;5.50;99.90;5.40;100599.00;;;;4779511;29;109900;-75
2023/02/03 05:15:26;;;;;;;6.83;5.70;;;5.80;99.90;5.50;100600.00;;;;4779511;29;120702;-76
2023/02/03 05:17:53;;;;;;;8.37;5.77;;;5.80;99.90;5.50;100590.00;;;;4773500;29;121289;-73
2023/02/03 05:20:20;;;;;;;8.13;5.17;;;5.60;99.90;5.60;100594.00;;;;4778464;29;98095;-75
2023/02/03 05:22:46;;;;;;;8.53;5.03;;;5.60;99.90;5.60;100589.00;;;;4792673;29;92947;-74
2023/02/03 05:25:12;;;;;;;8.60;6.53;;;5.70;99.90;5.70;100566.00;;;;4776219;29;122763;-72
2023/02/03 05:27:38;;;;;;;9.90;5.63;;;5.70;99.90;5.70;100548.00;;;;4778161;29;94050;-72
2023/02/03 05:30:07;;;;;;;15.27;6.50;;;5.80;99.90;5.70;100549.00;;;;4780286;29;92992;-74
2023/02/03 05:32:32;;;;;;;11.23;6.37;;;5.90;99.90;5.70;100548.00;;;;4789532;29;92984;-71
2023/02/03 05:34:58;;;;;;;14.03;7.80;;;5.90;99.90;5.70;100551.00;;;;4775577;29;123377;-74
2023/02/03 05:37:24;;;;;;;9.03;5.93;;;5.80;99.90;5.80;100555.00;;;;4775820;29;115108;-72
2023/02/03 05:39:49;;;;;;;10.70;5.93;;;5.90;99.90;5.80;100572.00;;;;4774155;29;110840;-72
2023/02/03 05:42:15;;;;;;;7.93;5.33;;;6.50;99.90;5.90;100569.00;;;;4776305;29;109529;-71
2023/02/03 05:44:41;;;;;;;9.53;5.40;;;6.00;99.90;5.90;100567.00;;;;4771478;29;122982;-72
2023/02/03 05:47:06;;;;;;;6.10;5.03;;;6.60;99.90;5.90;100564.00;;;;4773282;29;122049;-72
2023/02/03 05:49:32;;;;;;;9.17;5.43;;;6.90;99.90;6.00;100555.00;;;;4774454;29;113479;-71
2023/02/03 05:51:58;;;;;;;7.27;4.87;;;6.20;99.90;6.00;100536.00;;;;4776609;29;108978;-70
2023/02/03 05:54:24;;;;;;;8.53;5.03;;;6.20;99.90;6.00;100527.00;;;;4775087;29;122381;-72
2023/02/03 05:56:50;;;;;;;5.40;4.50;;;6.50;99.90;6.00;100534.00;;;;4771176;29;121530;-72
2023/02/03 05:59:15;;;;;;;9.70;5.37;;;6.40;99.90;6.00;100527.00;;;;4773555;29;109924;-74
2023/02/03 06:01:41;;;;;;;9.67;5.20;;;6.50;99.90;6.10;100515.00;;;;4779464;29;93010;-70
2023/02/03 06:04:07;;;;;;;8.37;5.50;;;6.20;99.90;6.10;100527.00;;;;4776109;29;122754;-72
2023/02/03 06:06:33;;;;;;;7.93;5.47;;;6.30;99.90;6.10;100518.00;;;;4776650;29;120918;-74
2023/02/03 06:09:05;;;;;;;7.67;5.07;;;6.60;99.90;6.10;100522.00;;;;4779385;29;92996;-71
2023/02/03 06:11:32;;;;;;;7.00;4.13;;;6.30;99.90;6.20;100520.00;;;;4779567;29;93375;-74
2023/02/03 06:13:58;;;;;;;8.60;5.10;;;6.30;99.90;6.20;100522.00;;;;4778016;29;95721;-73
2023/02/03 06:16:26;;;;;;;11.13;6.43;;;6.40;99.90;6.20;100512.00;;;;4774881;29;94889;-73
2023/02/03 06:18:53;;;;;;;9.60;5.33;;;6.40;99.90;6.20;100519.00;;;;4775568;29;92890;-71
2023/02/03 06:21:21;;;;;;;6.53;4.87;;;6.90;99.90;6.30;100509.00;;;;4778277;29;93355;-72
2023/02/03 06:23:46;;;;;;;9.67;5.70;;;6.90;99.90;6.30;100497.00;;;;4777906;29;93011;-72
2023/02/03 06:26:12;;;;;;;8.50;5.30;;;7.10;99.90;6.30;100496.00;;;;4777795;29;93042;-72
2023/02/03 06:28:38;;;;;;;9.23;5.30;;;7.10;99.90;6.30;100502.00;;;;4776165;29;93157;-72
2023/02/03 06:31:04;;;;;;;9.97;5.57;;;6.50;99.90;6.30;100482.00;;;;4776368;29;108675;-73
2023/02/03 06:33:31;;;;;;;7.90;4.63;;;6.40;99.90;6.30;100486.00;;;;4773915;29;112533;-73
2023/02/03 06:35:57;;;;;;;10.27;5.87;;;6.50;99.90;6.30;100474.00;;;;4777631;29;99913;-71
2023/02/03 06:38:22;;;;;;;9.37;4.63;;;6.50;99.90;6.30;100477.00;;;;4774193;29;93937;-71
2023/02/03 06:40:49;;;;;;;6.77;4.80;;;7.20;99.90;6.30;100475.00;;;;4776025;29;109038;-69
2023/02/03 06:43:15;;;;;;;6.17;4.50;;;7.00;99.90;6.30;100474.00;;;;4774148;29;121668;-69
2023/02/03 06:45:41;;;;;;;7.03;4.50;;;6.50;99.90;6.30;100449.00;;;;4776464;29;94242;-72
2023/02/03 06:48:06;;;;;;;8.87;5.70;;;6.50;99.90;6.30;100450.00;;;;4778146;29;92962;-69
2023/02/03 06:50:32;;;;;;;8.97;5.37;;;7.10;99.90;6.30;100439.00;;;;4774320;29;109246;-73
2023/02/03 06:52:58;;;;;;;8.27;4.97;;;7.10;99.90;6.40;100449.00;;;;4776538;29;93197;-72
2023/02/03 06:55:24;;;;;;;9.33;5.83;;;6.50;99.90;6.40;100453.00;;;;4778358;29;112579;-71
2023/02/03 06:57:50;;;;;;;9.57;5.50;;;6.50;99.90;6.40;100438.00;;;;4776929;29;110302;-71
2023/02/03 07:00:17;;;;;;;9.73;5.67;;;7.30;99.90;6.40;100447.00;;;;4778714;29;92780;-71
2023/02/03 07:02:43;;;;;;;11.20;5.20;;;6.60;99.90;6.40;100436.00;;;;4776991;29;112368;-72
2023/02/03 07:05:09;;;;;;;7.10;4.43;;;7.10;99.90;6.50;100430.00;;;;4778393;29;96683;-72
2023/02/03 07:07:38;;;;;;;7.47;4.33;;;6.60;99.90;6.50;100431.00;;;;4777092;29;111461;-70
2023/02/03 07:10:05;;;;;;;11.80;4.87;;;6.90;99.90;6.50;100436.00;;;;4776573;29;92930;-71
2023/02/03 07:12:31;;;;;;;6.50;4.67;;;6.60;99.90;6.60;100437.00;;;;4776780;29;93223;-69
2023/02/03 07:14:56;;;;;;;5.73;4.73;;;6.70;99.90;6.60;100423.00;;;;4777459;29;102623;-70
2023/02/03 07:17:22;;;;;;;6.17;4.47;;;7.00;99.90;6.60;100434.00;;;;4772098;29;109352;-70
2023/02/03 07:19:48;;;;;;;7.70;4.70;;;7.00;99.90;6.60;100426.00;;;;4778856;29;92069;-69
2023/02/03 07:22:13;;;;;;;5.53;3.97;;;7.20;99.90;6.70;100435.00;;;;4777877;29;111997;-69
2023/02/03 07:24:39;;;;;;;5.37;3.67;;;7.40;99.90;6.70;100418.00;;;;4775646;29;121097;-70
2023/02/03 07:27:04;;;;;;;5.50;3.93;;;6.90;99.90;6.70;100422.00;;;;4774338;29;109945;-71
2023/02/03 07:29:30;;;;;;;8.40;5.63;;;6.80;99.90;6.80;100422.00;;;;4789511;29;110904;-69
2023/02/03 07:31:56;;;;;;;4.93;3.37;;;6.90;99.90;6.80;100420.00;;;;4775507;29;122065;-69
2023/02/03 07:34:21;;;;;;;9.90;4.47;;;6.90;99.90;6.80;100418.00;;;;4773352;29;93171;-70
2023/02/03 07:36:47;;;;;;;4.37;3.53;;;7.20;99.90;6.90;100406.00;;;;4773247;29;110259;-70
2023/02/03 07:39:13;;;;;;;6.97;4.00;;;7.00;99.90;6.90;100408.00;;;;4778674;29;107830;-72
2023/02/03 07:41:39;;;;;;;8.70;4.60;;;7.00;99.90;6.90;100412.00;;;;4778107;29;121935;-72
2023/02/03 07:44:05;;;;;;;5.70;3.67;;;7.10;99.90;6.90;100405.00;;;;4779077;29;93640;-71
2023/02/03 07:46:30;;;;;;;6.77;4.37;;;7.10;99.90;6.90;100401.00;;;;4777808;29;93726;-71
2023/02/03 07:48:56;;;;;;;5.93;3.90;;;7.10;99.90;6.90;100416.00;;;;4780455;29;108467;-70
2023/02/03 07:51:22;;;;;;;5.03;3.57;;;7.30;99.90;6.90;100400.00;;;;4776325;29;123232;-71
2023/02/03 07:53:47;;;;;;;6.37;4.13;;;7.20;99.90;6.80;100399.00;;;;4778679;29;112863;-72
2023/02/03 07:56:13;;;;;;;6.13;4.27;;;7.20;99.90;6.80;100399.00;;;;4780026;29;109632;-71
2023/02/03 07:58:39;;;;;;;9.37;4.43;;;7.00;99.90;6.80;100413.00;;;;4793678;29;98685;-69
2023/02/03 08:01:13;;;;;;;6.83;4.53;;;7.60;99.90;6.80;100415.00;;;;4780449;29;113056;-72
2023/02/03 08:03:40;;;;;;;8.77;4.17;;;7.00;99.90;6.80;100410.00;;;;4779378;29;92914;-71
2023/02/03 08:06:06;;;;;;;6.20;4.57;;;6.90;99.90;6.70;100391.00;;;;4779073;29;93146;-70
2023/02/03 08:08:32;;;;;;;4.87;4.37;;;6.90;99.90;6.70;100397.00;;;;4779400;29;92325;-73
2023/02/03 08:10:58;;;;;;;6.23;3.80;;;7.50;99.90;6.70;100393.00;;;;4778013;29;122217;-71
2023/02/03 08:13:23;;;;;;;5.57;4.13;;;7.30;99.90;6.70;100383.00;;;;4778799;29;120978;-71
2023/02/03 08:15:49;;;;;;;6.33;3.67;;;6.90;99.90;6.70;100397.00;;;;4777214;29;110738;-72
2023/02/03 08:18:15;;;;;;;5.97;4.13;;;6.90;99.90;6.70;100391.00;;;;4779877;29;108715;-74
2023/02/03 08:20:41;;;;;;;3.97;3.53;;;6.90;99.90;6.70;100391.00;;;;4779264;29;121187;-71
2023/02/03 08:23:06;;;;;;;9.00;4.27;;;6.90;99.90;6.70;100380.00;;;;4773058;29;123615;-70
2023/02/03 08:25:32;;;;;;;5.03;3.30;;;7.40;99.90;6.70;100365.00;;;;4779429;29;111009;-71
2023/02/03 08:27:58;;;;;;;5.60;3.90;;;6.90;99.90;6.70;100370.00;;;;4777666;29;108090;-71
2023/02/03 08:30:24;;;;;;;5.63;3.63;;;6.80;99.90;6.70;100362.00;;;;4780336;29;93512;-72
2023/02/03 08:32:50;;;;;;;8.77;4.63;;;6.90;99.90;6.70;100353.00;;;;4782235;29;92101;-70
2023/02/03 08:35:17;;;;;;;6.80;4.77;;;7.70;99.90;6.70;100359.00;;;;4778875;29;92988;-74
2023/02/03 08:37:43;;;;;;;10.67;4.00;;;6.90;99.90;6.70;100354.00;;;;4780072;29;100358;-70
2023/02/03 08:40:10;;;;;;;7.53;4.27;;;7.40;99.90;6.70;100356.00;;;;4775823;29;122518;-71
2023/02/03 08:42:36;;;;;;;7.73;4.40;;;6.90;99.90;6.80;100350.00;;;;4793623;29;94251;-71
2023/02/03 08:45:02;;;;;;;5.10;3.57;;;7.10;99.90;6.80;100323.00;;;;4780625;29;92789;-71
2023/02/03 08:47:28;;;;;;;9.07;3.90;;;6.90;99.90;6.80;100326.00;;;;4778094;29;92535;-73
2023/02/03 08:49:54;;;;;;;5.57;3.80;;;7.00;99.90;6.80;100303.00;;;;4779558;29;122579;-74
2023/02/03 08:52:19;;;;;;;7.30;3.77;;;7.20;99.90;6.80;100341.00;;;;4775143;29;122426;-75
2023/02/03 08:54:46;;;;;;;5.87;3.77;;;6.90;99.90;6.80;100335.00;;;;4777044;29;92822;-74
2023/02/03 08:57:12;;;;;;;9.57;3.97;;;7.60;99.90;6.80;100314.00;;;;4779898;29;92092;-74
2023/02/03 08:59:41;;;;;;;6.87;4.47;;;7.60;99.90;6.80;100308.00;;;;4779090;29;114276;-72
2023/02/03 09:02:13;;;;;;;4.90;3.57;;;7.00;99.90;6.80;100312.00;;;;4779604;29;95372;-71
2023/02/03 09:04:38;;;;;;;5.90;3.10;;;7.00;99.90;6.80;100303.00;;;;4775026;29;93932;-71
2023/02/03 09:07:04;;;;;;;5.13;3.80;;;7.00;99.90;6.80;100290.00;;;;4777235;29;108963;-73
2023/02/03 09:09:30;;;;;;;6.27;3.73;;;7.00;99.90;6.80;100300.00;;;;4777966;29;124068;-72
2023/02/03 09:12:00;;;;;;;5.63;3.20;;;7.70;99.90;6.80;100302.00;;;;4778608;29;93479;-68
2023/02/03 09:14:32;;;;;;;5.57;3.70;;;7.00;99.90;6.80;100305.00;;;;4791244;29;93071;-71
2023/02/03 09:17:03;;;;;;;6.40;4.27;;;7.00;99.90;6.90;100305.00;;;;4779123;29;92925;-72
2023/02/03 09:19:29;;;;;;;8.80;4.57;;;7.20;99.90;6.80;100294.00;;;;4789088;29;94709;-71
2023/02/03 09:21:56;;;;;;;4.93;3.50;;;7.20;99.90;6.90;100288.00;;;;4779351;29;93252;-71
2023/02/03 09:24:22;;;;;;;5.27;3.30;;;7.00;99.90;6.90;100272.00;;;;4776649;29;93016;-72
2023/02/03 09:26:48;;;;;;;5.43;3.80;;;7.80;99.90;6.90;100265.00;;;;4778543;29;92937;-71
2023/02/03 09:29:14;;;;;;;5.57;3.80;;;7.00;99.90;6.90;100270.00;;;;4775878;29;94091;-70
2023/02/03 09:31:40;;;;;;;8.10;4.20;;;7.10;99.90;6.90;100248.00;;;;4782328;29;93042;-69
2023/02/03 09:34:06;;;;;;;5.13;3.83;;;7.20;99.90;6.90;100234.00;;;;4778266;29;93109;-68
2023/02/03 09:36:32;;;;;;;4.93;4.13;;;7.60;99.90;6.90;100235.00;;;;4777609;29;101449;-70
2023/02/03 09:38:57;;;;;;;6.37;3.90;;;7.10;99.90;6.80;100239.00;;;;4778373;29;93052;-69
2023/02/03 09:42:03;;;;;;;7.53;4.00;;;7.40;99.90;6.80;100231.00;;;;4772696;29;122006;-69
2023/02/03 09:45:04;;;;;;;7.03;4.20;;;7.00;99.90;6.80;100226.00;;;;4775878;29;92847;-69
2023/02/03 09:47:38;;;;;;;4.93;3.73;;;7.00;99.90;6.80;100225.00;;;;4789951;29;100195;-72
2023/02/03 09:50:13;;;;;;;5.97;3.57;;;7.20;99.90;6.80;100217.00;;;;4775976;29;116030;-70
2023/02/03 09:52:40;;;;;;;5.93;3.53;;;7.00;99.90;6.80;100214.00;;;;4778752;29;110572;-70
2023/02/03 09:55:36;;;;;;;7.03;3.80;;;7.00;99.90;6.80;100200.00;;;;4776995;29;94348;-71
2023/02/03 09:58:21;;;;;;;4.47;3.40;;;7.00;99.90;6.80;100208.00;;;;4776626;29;92909;-70
2023/02/03 10:00:53;;;;;;;6.03;2.93;;;7.30;99.90;6.80;100187.00;;;;4776115;29;93092;-70
2023/02/03 10:03:32;;;;;;;5.57;3.63;;;7.70;99.90;6.80;100198.00;;;;4785512;29;108760;-70
2023/02/03 10:06:26;;;;;;;4.97;2.93;;;7.00;99.90;6.80;100195.00;;;;4777927;29;93002;-70
2023/02/03 10:09:36;;;;;;;4.27;3.00;;;7.00;99.90;6.80;100187.00;;;;4779867;29;93029;-70
2023/02/03 10:12:07;;;;;;;3.33;2.87;;;7.00;99.90;6.80;100170.00;;;;4777323;29;93091;-70
2023/02/03 10:14:38;;;;;;;5.80;3.63;;;7.00;99.90;6.80;100171.00;;;;4778135;29;93481;-69
2023/02/03 10:17:07;;;;;;;7.27;3.57;;;7.00;99.90;6.90;100181.00;;;;4777627;29;94041;-69
2023/02/03 10:20:00;;;;;;;7.13;3.40;;;7.20;99.90;6.80;100161.00;;;;4778480;29;93340;-69
2023/02/03 10:22:29;;;;;;;3.97;3.40;;;7.00;99.90;6.90;100154.00;;;;4763524;29;96316;-68
2023/02/03 10:25:19;;;;;;;4.93;3.30;;;7.40;99.90;6.90;100152.00;;;;4778079;29;116882;-68
2023/02/03 10:27:47;;;;;;;4.70;2.83;;;7.50;99.90;6.90;100161.00;;;;4777589;29;93069;-69
2023/02/03 10:30:23;;;;;;;4.23;3.17;;;7.70;99.90;6.90;100148.00;;;;4775577;29;109627;-70
2023/02/03 10:32:55;;;;;;;4.13;3.23;;;7.00;99.90;6.90;100142.00;;;;4777089;29;93363;-69
2023/02/03 10:35:35;;;;;;;4.77;3.03;;;7.50;99.90;6.90;100147.00;;;;4778811;29;93280;-70
2023/02/03 10:38:00;;;;;;;4.77;2.63;;;7.40;99.90;6.90;100129.00;;;;4771317;29;105405;-69
2023/02/03 10:40:27;;;;;;;4.07;3.07;;;7.10;99.90;6.90;100129.00;;;;4790872;29;108593;-71
2023/02/03 10:45:39;;;;;;;6.67;3.50;;;7.10;99.90;6.90;100111.00;;;;4777421;29;92779;-68
2023/02/03 10:48:11;;;;;;;3.23;2.23;;;7.00;99.90;6.90;100113.00;;;;4776159;29;110582;-69
2023/02/03 10:50:44;;;;;;;4.87;2.97;;;7.10;99.90;6.90;100092.00;;;;4777931;29;93392;-67
2023/02/03 10:53:34;;;;;;;5.67;3.10;;;7.60;99.90;6.90;100093.00;;;;4777287;29;113999;-68
2023/02/03 10:56:10;;;;;;;5.47;3.17;;;7.10;99.90;6.90;100104.00;;;;4777453;29;92904;-70
2023/02/03 10:58:38;;;;;;;3.87;2.60;;;7.10;99.90;6.90;100098.00;;;;4774801;29;93166;-71
2023/02/03 11:01:16;;;;;;;3.17;2.87;;;7.10;99.90;6.90;100090.00;;;;4779214;29;94086;-70
2023/02/03 11:04:02;;;;;;;3.30;2.50;;;7.10;99.90;6.90;100078.00;;;;4792933;29;94152;-71
2023/02/03 11:06:30;;;;;;;5.03;2.80;;;7.10;99.90;7.00;100093.00;;;;4779672;29;92789;-69
2023/02/03 11:08:56;;;;;;;3.93;2.70;;;7.10;99.90;7.00;100088.00;;;;4778377;29;92886;-70
2023/02/03 11:11:24;;;;;;;8.27;2.47;;;7.10;99.90;7.00;100075.00;;;;4777676;29;92901;-72
2023/02/03 11:14:09;;;;;;;6.63;2.80;;;7.20;99.90;7.00;100085.00;;;;4774085;29;93654;-70